»·PEaware :: N786SC KBFL-KFAT

N786SC :: KBFL-KFAT

FLIGHT INFORMATION

Flight Status: Arrived
Operator: Privately registered:
United States
More flights under this callsign
Pilot: Jereme M. (20698)
Aircraft: CESSNA 172 SKYHAWK
(C172)
More flights by this aircraft type
Origin: KBFL Meadows
United States
Destination: KFAT Fresno Yosemite Intl
United States
More flights between these airports :: More routes between these airports
Route:
File this flight plan on PilotEdge
Remarks:
Altitude:
(Current/Filed)
6,500ft
Speed:
(Current/Filed)
110kts
Departed: 31-Oct-18 03:19 PM
Arrived: 31-Oct-18 04:17 PM
Distance/Time
Traveled:
87nm/0:57
Distance/Time
To Go:
Arrived

Flight Plot

Page will automatically refresh every two minutes.


Map Options




Map Legend


Flown Route
Filed Route
Departure Airport
Arrival Airport
Navaid (VOR, NDB)
Fix

Horizontal Profiles

Position Reports

Time Latitude Longitude Heading Altitude Ground
Speed
31-Oct-18 15:11 35.435702 -119.052043 180 510ft 0kts
31-Oct-18 15:12 35.435697 -119.052043 180 510ft 0kts
31-Oct-18 15:13 35.435481 -119.053154 257 510ft 6kts
31-Oct-18 15:14 35.433644 -119.053738 135 510ft 11kts
31-Oct-18 15:15 35.430694 -119.050161 135 510ft 17kts
31-Oct-18 15:16 35.427075 -119.045799 135 510ft 19kts
31-Oct-18 15:17 35.425675 -119.044792 235 510ft 0kts
31-Oct-18 15:18 35.425675 -119.044791 235 510ft 0kts
31-Oct-18 15:19 35.425675 -119.044791 235 510ft 0kts
31-Oct-18 15:20 35.425503 -119.045936 285 510ft 12kts
31-Oct-18 15:21 35.434914 -119.056631 317 786ft 66kts
31-Oct-18 15:22 35.449570 -119.072583 319 1376ft 73kts
31-Oct-18 15:23 35.469644 -119.075562 333 1958ft 77kts
31-Oct-18 15:24 35.488417 -119.086803 330 2543ft 75kts
31-Oct-18 15:25 35.506390 -119.097920 330 3139ft 69kts
31-Oct-18 15:26 35.523883 -119.107408 333 3644ft 71kts
31-Oct-18 15:27 35.541973 -119.117299 333 4141ft 71kts
31-Oct-18 15:28 35.560023 -119.127322 335 4640ft 70kts
31-Oct-18 15:29 35.577537 -119.136945 335 5134ft 67kts
31-Oct-18 15:30 35.594155 -119.146375 334 5627ft 64kts
31-Oct-18 15:31 35.610076 -119.155704 335 6061ft 66kts
31-Oct-18 15:32 35.627472 -119.164778 339 6459ft 70kts
31-Oct-18 15:33 35.649419 -119.174482 340 6502ft 97kts
31-Oct-18 15:34 35.674390 -119.185469 341 6495ft 93kts
31-Oct-18 15:35 35.698558 -119.196182 341 6489ft 92kts
31-Oct-18 15:36 35.723512 -119.207088 341 6485ft 96kts
31-Oct-18 15:37 35.748725 -119.217963 341 6477ft 96kts
31-Oct-18 15:38 35.774071 -119.228796 341 6469ft 96kts
31-Oct-18 15:39 35.799410 -119.239566 341 6460ft 96kts
31-Oct-18 15:40 35.824702 -119.250291 341 6451ft 97kts
31-Oct-18 15:41 35.850497 -119.261221 341 6442ft 99kts
31-Oct-18 15:42 35.876807 -119.272127 341 6431ft 99kts
31-Oct-18 15:43 35.901163 -119.281901 341 6420ft 99kts
31-Oct-18 15:44 35.927169 -119.293188 339 6407ft 99kts
31-Oct-18 15:45 35.953365 -119.304147 339 6393ft 99kts
31-Oct-18 15:46 35.979295 -119.316067 335 6379ft 99kts
31-Oct-18 15:47 36.004175 -119.328150 335 6364ft 100kts
31-Oct-18 15:48 36.030010 -119.340622 333 6350ft 101kts
31-Oct-18 15:49 36.056309 -119.353609 333 6336ft 102kts
31-Oct-18 15:50 36.082955 -119.366658 332 6323ft 103kts
31-Oct-18 15:51 36.108054 -119.381276 325 6314ft 103kts
31-Oct-18 15:52 36.132587 -119.398671 325 6309ft 105kts
31-Oct-18 15:53 36.157236 -119.415889 325 6300ft 99kts
31-Oct-18 15:54 36.180724 -119.432085 326 6335ft 94kts
31-Oct-18 15:55 36.203483 -119.446508 327 6330ft 95kts
31-Oct-18 15:56 36.226225 -119.460751 328 6324ft 96kts
31-Oct-18 15:57 36.250720 -119.474804 330 6318ft 97kts
31-Oct-18 15:58 36.275237 -119.488466 330 6312ft 97kts
31-Oct-18 15:59 36.299790 -119.502238 331 6305ft 96kts
31-Oct-18 16:00 36.324235 -119.516045 331 6298ft 96kts
31-Oct-18 16:01 36.348560 -119.529856 331 6291ft 96kts
31-Oct-18 16:02 36.372883 -119.543635 331 6283ft 96kts
31-Oct-18 16:03 36.397284 -119.557426 331 6275ft 96kts
31-Oct-18 16:04 36.421656 -119.571064 332 6266ft 96kts
31-Oct-18 16:05 36.446236 -119.584192 332 6257ft 96kts
31-Oct-18 16:06 36.471045 -119.597396 332 6070ft 100kts
31-Oct-18 16:07 36.496751 -119.611132 332 5564ft 102kts
31-Oct-18 16:08 36.522444 -119.624968 332 5067ft 104kts
31-Oct-18 16:09 36.547853 -119.638946 332 4580ft 105kts
31-Oct-18 16:10 36.574152 -119.653815 332 4081ft 105kts
31-Oct-18 16:11 36.600132 -119.668513 332 3599ft 109kts
31-Oct-18 16:12 36.628782 -119.684481 332 3104ft 116kts
31-Oct-18 16:13 36.658458 -119.701330 332 2613ft 120kts
31-Oct-18 16:15 36.688740 -119.701363 36 2103ft 119kts
31-Oct-18 16:16 36.713226 -119.675785 36 1573ft 111kts
31-Oct-18 16:17 36.736676 -119.660843 344 1248ft 93kts
31-Oct-18 16:18 36.753716 -119.680977 305 967ft 76kts
31-Oct-18 16:19 36.765674 -119.701983 305 559ft 75kts
31-Oct-18 16:20 36.775092 -119.718421 305 338ft 37kts
31-Oct-18 16:21 36.776581 -119.722461 212 338ft 0kts
31-Oct-18 16:22 36.776352 -119.722683 215 338ft 6kts
31-Oct-18 16:23 36.776097 -119.725859 216 338ft 14kts
31-Oct-18 16:24 36.775782 -119.726212 40 338ft 0kts
31-Oct-18 16:25 36.775782 -119.726212 40 338ft 0kts
31-Oct-18 16:26 36.775782 -119.726212 40 338ft 0kts
31-Oct-18 16:27 36.775782 -119.726212 40 338ft 0kts
31-Oct-18 16:28 36.775782 -119.726212 40 338ft 0kts
31-Oct-18 16:29 36.775782 -119.726212 40 338ft 0kts
31-Oct-18 16:30 36.775782 -119.726212 40 338ft 0kts
31-Oct-18 16:31 36.775782 -119.726212 40 338ft 0kts

Navigation Log

Ident Type
1. KBFL Airport
2. KFAT Airport